Chicago, IL (60601)

8:53 PM CST on December 10, 2016 (GMT -0600)
Chicago-Midway | | Change Station
Active Advisory: Winter Storm Warning

Elev 623 ft 41.78 °N, 87.76 °W | Updated 100 days ago

Snow
Snow
80 °F
Feels Like 82 °F
N
5
Wind Variable Wind from South
Gusts mph

Today
High -- | Low -- °F
--% Chance of Precip.
Yesterday
High -- | Low -- °F
Precip. -- in
Pressure 30.17 in
Visibility 10.0 miles
Clouds Scattered Clouds 3700 ft
Mostly Cloudy 4500 ft
Mostly Cloudy 8000 ft
Heat Index 82 °F
Dew Point 63 °F
Humidity 56%
Rainfall 0.00 in
Snow Depth Not available.
7:07 AM 4:19 PM
Waxing Gibbous, 88% visible
METAR KMDW 011953Z 03016G23KT 10SM SCT037 BKN045 BKN080 23/13 A3018 RMK AO2 SLP214 VCSH SE-S T02280133
Pressure 30.17 in
Visibility 10.0 miles
Clouds Scattered Clouds 3700 ft
Mostly Cloudy 4500 ft
Mostly Cloudy 8000 ft
Heat Index 82 °F
Dew Point 63 °F
Humidity 56%
Rainfall 0.00 in
Snow Depth Not available.
7:07 AM 4:19 PM
Waxing Gibbous, 88% visible
METAR KMDW 011953Z 03016G23KT 10SM SCT037 BKN045 BKN080 23/13 A3018 RMK AO2 SLP214 VCSH SE-S T02280133

10-Day Weather Forecast

Almanac

Astronomy

Dec. 10, 2016 Rise Set
Actual Time
Civil Twilight
Nautical Twilight
Astronomical Twilight
Moon
Length of Visible Light
Length of Day
Tomorrow will be .
, % of the Moon is Illuminated

Today's Extremes

State Highs State Lows

Community

WunderPhotos

Upload Photos

1,956,692 photos uploaded!

WunderBlog® & News

Nearby

Air Quality

  Air Quality AQ Index Pollutant
Not available.

Snow Depth

Station Depth Elevation

Earthquake Activity

City Distance Mag. Time & Date
Minimum magnitude displayed is 2.5.

Coastal Water Temperatures

Place Temperature

Stations

Nearby Weather Stations

Station Location Temp. Windchill Dew Point Humidity Wind Precip. Elev Updated Type
                   

Watches & Warnings

Winter Storm Warning
Issued: 3:39 PM CST Dec. 10, 2016 – National Weather Service

... Winter Storm Warning remains in effect until midnight CST
Sunday night...

* timing... snow... becoming heavy at times... will develop by
evening and continue tonight through Sunday before diminishing
Sunday evening.

* Snow accumulations... 7 to 12 inches with the highest totals
north of Interstate 80. Isolated higher amounts are possible.

* Visibilities... look for reduced visibilities during the
heavier snowfall... likely below a mile at times.

* Impacts... plan on difficult driving conditions.

Precautionary/preparedness actions...

A Winter Storm Warning for heavy snow means severe winter weather
conditions are expected or occurring. Significant amounts of snow
are forecast that will make travel dangerous. Only travel in an
emergency. If you must travel... keep an extra flashlight...
food... and water in your vehicle in case of an emergency.